This is the latest recevied weather packets stored in our database for station/object N5UKZ-WX. If no packets are shown the sender has not sent any weather packets the latest 10 day(s).
| Time | Temp. | Humidity | Pressure | Rain* | Wind** | Luminosity | Snow |
|---|---|---|---|---|---|---|---|
| 1787602060 | 25° C | 98% | 1016 hPa | 25.91 mm | - | - | - |
| 1787601130 | 24.44° C | 97% | 1016 hPa | 25.65 mm | - | - | - |
| 1787600230 | 24.44° C | 96% | 1016.3 hPa | 23.37 mm | - | - | - |
| 1787599330 | 26.11° C | 91% | 1016 hPa | 18.03 mm | - | - | - |
| 1787598400 | 34.44° C | 59% | 1015.6 hPa | 0 mm | - | - | - |
| 1787597500 | 35.56° C | 55% | 1014.3 hPa | 0 mm | - | - | - |
| 1787596570 | 36.11° C | 54% | 1013.9 hPa | 0 mm | - | - | - |
| 1787595670 | 36.67° C | 54% | 1014.6 hPa | 0 mm | - | - | - |
| 1787594740 | 37.22° C | 55% | 1014.9 hPa | 0 mm | - | - | - |
| 1787593810 | 36.11° C | 57% | 1015.3 hPa | 0 mm | - | - | - |
| 1787592880 | 35° C | 59% | 1015.6 hPa | 0 mm | - | - | - |
| 1787591980 | 36.11° C | 62% | 1016 hPa | 0 mm | - | - | - |
| 1787591050 | 35.56° C | 61% | 1016 hPa | 0 mm | - | - | - |
| 1787590120 | 35° C | 62% | 1016 hPa | 0 mm | - | - | - |
| 1787589220 | 33.33° C | 64% | 1016 hPa | 0 mm | - | - | - |
| 1787588290 | 32.78° C | 66% | 1016 hPa | 0 mm | - | - | - |
| 1787587360 | 32.22° C | 69% | 1016 hPa | 0 mm | - | - | - |
| 1787586460 | 32.78° C | 70% | 1016.3 hPa | 0 mm | - | - | - |
| 1787585530 | 31.67° C | 73% | 1016 hPa | 0 mm | - | - | - |
| 1787584630 | 32.22° C | 76% | 1016 hPa | 0 mm | - | - | - |
| 1787583730 | 31.11° C | 79% | 1015.6 hPa | 0 mm | - | - | - |
| 1787582830 | 30.56° C | 80% | 1015.3 hPa | 0 mm | - | - | - |
| 1787581900 | 30° C | 84% | 1015.3 hPa | 0 mm | - | - | - |
| 1787581000 | 30° C | 85% | 1015.3 hPa | 0 mm | - | - | - |
| 1787580070 | 30° C | 87% | 1015.3 hPa | 0 mm | - | - | - |
* Rain latest hour (hover to see other rain measurements)
** Current wind speed in m/s (hover to see current wind gust speed)